sensor_id;sensor_type;location;lat;lon;timestamp;temperature;humidity
64111;DHT22;50401;48.188;11.566;2022-08-21T00:01:22;18.26;87.05
64111;DHT22;50401;48.188;11.566;2022-08-21T00:03:48;18.28;86.92
64111;DHT22;50401;48.188;11.566;2022-08-21T00:06:13;18.26;86.65
64111;DHT22;50401;48.188;11.566;2022-08-21T00:08:39;18.24;86.79
64111;DHT22;50401;48.188;11.566;2022-08-21T00:11:05;18.18;86.63
64111;DHT22;50401;48.188;11.566;2022-08-21T00:13:30;18.27;86.43
64111;DHT22;50401;48.188;11.566;2022-08-21T00:15:55;18.21;86.46
64111;DHT22;50401;48.188;11.566;2022-08-21T00:18:21;18.18;86.71
64111;DHT22;50401;48.188;11.566;2022-08-21T00:20:46;18.20;86.66
64111;DHT22;50401;48.188;11.566;2022-08-21T00:23:12;18.21;86.60
64111;DHT22;50401;48.188;11.566;2022-08-21T00:25:38;18.18;86.47
64111;DHT22;50401;48.188;11.566;2022-08-21T00:28:03;18.17;86.53
64111;DHT22;50401;48.188;11.566;2022-08-21T00:30:30;18.21;86.48
64111;DHT22;50401;48.188;11.566;2022-08-21T00:32:56;18.13;86.58
64111;DHT22;50401;48.188;11.566;2022-08-21T00:35:23;18.14;86.36
64111;DHT22;50401;48.188;11.566;2022-08-21T00:37:49;18.23;86.05
64111;DHT22;50401;48.188;11.566;2022-08-21T00:40:16;18.14;86.14
64111;DHT22;50401;48.188;11.566;2022-08-21T00:42:41;18.11;86.07
64111;DHT22;50401;48.188;11.566;2022-08-21T00:45:10;18.13;85.92
64111;DHT22;50401;48.188;11.566;2022-08-21T00:47:36;18.11;85.62
64111;DHT22;50401;48.188;11.566;2022-08-21T00:50:03;17.97;85.94
64111;DHT22;50401;48.188;11.566;2022-08-21T00:52:30;18.00;86.19
64111;DHT22;50401;48.188;11.566;2022-08-21T00:54:57;17.99;86.05
64111;DHT22;50401;48.188;11.566;2022-08-21T00:57:27;18.00;85.96
64111;DHT22;50401;48.188;11.566;2022-08-21T00:59:55;17.99;85.92
64111;DHT22;50401;48.188;11.566;2022-08-21T01:02:21;17.99;85.60
64111;DHT22;50401;48.188;11.566;2022-08-21T01:04:46;17.90;85.88
64111;DHT22;50401;48.188;11.566;2022-08-21T01:07:12;17.85;85.99
64111;DHT22;50401;48.188;11.566;2022-08-21T01:09:37;17.85;85.71
64111;DHT22;50401;48.188;11.566;2022-08-21T01:12:03;17.78;86.03
64111;DHT22;50401;48.188;11.566;2022-08-21T01:14:29;17.75;86.08
64111;DHT22;50401;48.188;11.566;2022-08-21T01:16:55;17.79;86.04
64111;DHT22;50401;48.188;11.566;2022-08-21T01:19:21;17.78;85.82
64111;DHT22;50401;48.188;11.566;2022-08-21T01:21:47;17.75;85.66
64111;DHT22;50401;48.188;11.566;2022-08-21T01:24:12;17.74;85.93
64111;DHT22;50401;48.188;11.566;2022-08-21T01:26:38;17.76;85.71
64111;DHT22;50401;48.188;11.566;2022-08-21T01:31:32;17.67;85.80
64111;DHT22;50401;48.188;11.566;2022-08-21T01:33:58;17.69;85.66
64111;DHT22;50401;48.188;11.566;2022-08-21T01:36:23;17.71;85.46
64111;DHT22;50401;48.188;11.566;2022-08-21T01:41:52;17.69;85.58
64111;DHT22;50401;48.188;11.566;2022-08-21T01:44:20;17.58;85.56
64111;DHT22;50401;48.188;11.566;2022-08-21T01:46:45;17.55;85.76
64111;DHT22;50401;48.188;11.566;2022-08-21T01:49:10;17.58;85.83
64111;DHT22;50401;48.188;11.566;2022-08-21T01:51:36;17.61;85.51
64111;DHT22;50401;48.188;11.566;2022-08-21T01:54:01;17.60;85.16
64111;DHT22;50401;48.188;11.566;2022-08-21T01:56:26;17.61;85.41
64111;DHT22;50401;48.188;11.566;2022-08-21T01:58:53;17.54;85.52
64111;DHT22;50401;48.188;11.566;2022-08-21T02:01:18;17.50;85.56
64111;DHT22;50401;48.188;11.566;2022-08-21T02:03:43;17.47;85.53
64111;DHT22;50401;48.188;11.566;2022-08-21T02:06:12;17.41;85.70
64111;DHT22;50401;48.188;11.566;2022-08-21T02:08:38;17.48;85.25
64111;DHT22;50401;48.188;11.566;2022-08-21T02:11:03;17.45;85.35
64111;DHT22;50401;48.188;11.566;2022-08-21T02:13:29;17.43;85.29
64111;DHT22;50401;48.188;11.566;2022-08-21T02:15:54;17.37;85.06
64111;DHT22;50401;48.188;11.566;2022-08-21T02:18:19;17.31;85.37
64111;DHT22;50401;48.188;11.566;2022-08-21T02:20:46;17.28;85.47
64111;DHT22;50401;48.188;11.566;2022-08-21T02:23:12;17.27;85.67
64111;DHT22;50401;48.188;11.566;2022-08-21T02:25:38;17.26;85.74
64111;DHT22;50401;48.188;11.566;2022-08-21T02:28:04;17.20;85.51
64111;DHT22;50401;48.188;11.566;2022-08-21T02:30:33;17.30;85.67
64111;DHT22;50401;48.188;11.566;2022-08-21T02:32:58;17.37;85.11
64111;DHT22;50401;48.188;11.566;2022-08-21T02:35:24;17.38;84.88
64111;DHT22;50401;48.188;11.566;2022-08-21T02:37:52;17.28;85.02
64111;DHT22;50401;48.188;11.566;2022-08-21T02:40:19;17.31;85.14
64111;DHT22;50401;48.188;11.566;2022-08-21T02:42:44;17.30;85.10
64111;DHT22;50401;48.188;11.566;2022-08-21T02:45:10;17.20;85.24
64111;DHT22;50401;48.188;11.566;2022-08-21T02:47:35;17.24;85.33
64111;DHT22;50401;48.188;11.566;2022-08-21T02:50:00;17.27;85.18
64111;DHT22;50401;48.188;11.566;2022-08-21T02:52:26;17.22;85.16
64111;DHT22;50401;48.188;11.566;2022-08-21T02:54:51;17.28;84.92
64111;DHT22;50401;48.188;11.566;2022-08-21T02:57:16;17.20;84.97
64111;DHT22;50401;48.188;11.566;2022-08-21T02:59:41;17.15;85.29
64111;DHT22;50401;48.188;11.566;2022-08-21T03:02:07;17.19;85.26
64111;DHT22;50401;48.188;11.566;2022-08-21T03:04:32;17.16;85.24
64111;DHT22;50401;48.188;11.566;2022-08-21T03:06:58;17.15;85.42
64111;DHT22;50401;48.188;11.566;2022-08-21T03:09:23;17.02;85.76
64111;DHT22;50401;48.188;11.566;2022-08-21T03:11:49;17.10;85.49
64111;DHT22;50401;48.188;11.566;2022-08-21T03:14:15;17.06;85.59
64111;DHT22;50401;48.188;11.566;2022-08-21T03:16:40;17.06;85.42
64111;DHT22;50401;48.188;11.566;2022-08-21T03:19:07;17.05;85.69
64111;DHT22;50401;48.188;11.566;2022-08-21T03:21:32;17.09;85.71
64111;DHT22;50401;48.188;11.566;2022-08-21T03:23:58;17.12;85.32
64111;DHT22;50401;48.188;11.566;2022-08-21T03:26:24;17.15;85.15
64111;DHT22;50401;48.188;11.566;2022-08-21T03:28:49;17.10;85.28
64111;DHT22;50401;48.188;11.566;2022-08-21T03:31:15;17.02;85.59
64111;DHT22;50401;48.188;11.566;2022-08-21T03:33:42;17.00;85.33
64111;DHT22;50401;48.188;11.566;2022-08-21T03:36:07;17.02;85.40
64111;DHT22;50401;48.188;11.566;2022-08-21T03:38:33;17.03;85.41
64111;DHT22;50401;48.188;11.566;2022-08-21T03:40:58;17.02;85.42
64111;DHT22;50401;48.188;11.566;2022-08-21T03:43:25;17.09;85.29
64111;DHT22;50401;48.188;11.566;2022-08-21T03:45:50;17.03;85.36
64111;DHT22;50401;48.188;11.566;2022-08-21T03:48:15;17.00;85.47
64111;DHT22;50401;48.188;11.566;2022-08-21T03:50:41;17.00;85.38
64111;DHT22;50401;48.188;11.566;2022-08-21T03:53:08;17.08;85.24
64111;DHT22;50401;48.188;11.566;2022-08-21T03:55:34;17.09;84.91
64111;DHT22;50401;48.188;11.566;2022-08-21T03:57:59;17.06;85.04
64111;DHT22;50401;48.188;11.566;2022-08-21T04:00:25;16.99;85.09
64111;DHT22;50401;48.188;11.566;2022-08-21T04:02:50;16.96;85.30
64111;DHT22;50401;48.188;11.566;2022-08-21T04:05:16;16.86;85.35
64111;DHT22;50401;48.188;11.566;2022-08-21T04:07:56;16.83;85.54
64111;DHT22;50401;48.188;11.566;2022-08-21T04:10:21;16.83;85.38
64111;DHT22;50401;48.188;11.566;2022-08-21T04:12:47;16.74;85.58
64111;DHT22;50401;48.188;11.566;2022-08-21T04:15:12;16.72;85.65
64111;DHT22;50401;48.188;11.566;2022-08-21T04:17:38;16.72;85.68
64111;DHT22;50401;48.188;11.566;2022-08-21T04:20:03;16.69;85.56
64111;DHT22;50401;48.188;11.566;2022-08-21T04:22:28;16.78;85.72
64111;DHT22;50401;48.188;11.566;2022-08-21T04:24:54;16.71;85.42
64111;DHT22;50401;48.188;11.566;2022-08-21T04:27:19;16.75;85.32
64111;DHT22;50401;48.188;11.566;2022-08-21T04:29:44;16.76;85.54
64111;DHT22;50401;48.188;11.566;2022-08-21T04:32:10;16.76;85.22
64111;DHT22;50401;48.188;11.566;2022-08-21T04:34:35;16.72;85.43
64111;DHT22;50401;48.188;11.566;2022-08-21T04:37:01;16.71;85.32
64111;DHT22;50401;48.188;11.566;2022-08-21T04:39:26;16.68;85.48
64111;DHT22;50401;48.188;11.566;2022-08-21T04:41:51;16.75;85.05
64111;DHT22;50401;48.188;11.566;2022-08-21T04:44:17;16.72;85.15
64111;DHT22;50401;48.188;11.566;2022-08-21T04:46:42;16.74;85.22
64111;DHT22;50401;48.188;11.566;2022-08-21T04:49:08;16.72;85.07
64111;DHT22;50401;48.188;11.566;2022-08-21T04:51:34;16.65;85.23
64111;DHT22;50401;48.188;11.566;2022-08-21T04:58:52;16.76;84.85
64111;DHT22;50401;48.188;11.566;2022-08-21T05:01:19;16.95;84.24
64111;DHT22;50401;48.188;11.566;2022-08-21T05:03:44;17.40;82.89
64111;DHT22;50401;48.188;11.566;2022-08-21T05:06:11;17.74;81.78
64111;DHT22;50401;48.188;11.566;2022-08-21T05:08:38;18.28;80.17
64111;DHT22;50401;48.188;11.566;2022-08-21T05:11:04;18.38;78.94
64111;DHT22;50401;48.188;11.566;2022-08-21T05:13:30;18.90;77.72
64111;DHT22;50401;48.188;11.566;2022-08-21T05:15:55;19.36;75.93
64111;DHT22;50401;48.188;11.566;2022-08-21T05:18:21;19.74;74.96
64111;DHT22;50401;48.188;11.566;2022-08-21T05:20:46;20.24;73.59
64111;DHT22;50401;48.188;11.566;2022-08-21T05:23:12;20.53;71.85
64111;DHT22;50401;48.188;11.566;2022-08-21T05:25:38;20.66;71.41
64111;DHT22;50401;48.188;11.566;2022-08-21T05:28:03;21.10;70.40
64111;DHT22;50401;48.188;11.566;2022-08-21T05:30:29;21.39;69.22
64111;DHT22;50401;48.188;11.566;2022-08-21T05:32:58;21.61;68.77
64111;DHT22;50401;48.188;11.566;2022-08-21T05:35:24;22.02;66.96
64111;DHT22;50401;48.188;11.566;2022-08-21T05:37:49;22.22;66.14
64111;DHT22;50401;48.188;11.566;2022-08-21T05:40:14;22.59;65.24
64111;DHT22;50401;48.188;11.566;2022-08-21T05:42:40;22.87;64.77
64111;DHT22;50401;48.188;11.566;2022-08-21T05:45:05;23.22;63.68
64111;DHT22;50401;48.188;11.566;2022-08-21T05:47:31;23.64;62.38
64111;DHT22;50401;48.188;11.566;2022-08-21T05:49:56;24.02;61.05
64111;DHT22;50401;48.188;11.566;2022-08-21T05:52:21;24.26;60.13
64111;DHT22;50401;48.188;11.566;2022-08-21T05:54:47;24.58;59.69
64111;DHT22;50401;48.188;11.566;2022-08-21T05:57:12;24.98;58.85
64111;DHT22;50401;48.188;11.566;2022-08-21T05:59:37;25.10;58.27
64111;DHT22;50401;48.188;11.566;2022-08-21T06:02:03;25.20;57.47
64111;DHT22;50401;48.188;11.566;2022-08-21T06:04:29;24.37;59.23
64111;DHT22;50401;48.188;11.566;2022-08-21T06:06:54;24.92;58.03
64111;DHT22;50401;48.188;11.566;2022-08-21T06:09:19;25.47;57.11
64111;DHT22;50401;48.188;11.566;2022-08-21T06:11:44;25.48;56.76
64111;DHT22;50401;48.188;11.566;2022-08-21T06:14:10;23.67;60.37
64111;DHT22;50401;48.188;11.566;2022-08-21T06:16:38;24.39;59.72
64111;DHT22;50401;48.188;11.566;2022-08-21T06:19:03;24.58;59.60
64111;DHT22;50401;48.188;11.566;2022-08-21T06:21:28;24.08;60.24
64111;DHT22;50401;48.188;11.566;2022-08-21T06:23:54;23.82;61.56
64111;DHT22;50401;48.188;11.566;2022-08-21T06:26:19;23.29;62.77
64111;DHT22;50401;48.188;11.566;2022-08-21T06:28:46;22.59;64.50
64111;DHT22;50401;48.188;11.566;2022-08-21T06:31:18;21.76;67.42
64111;DHT22;50401;48.188;11.566;2022-08-21T06:33:44;21.88;67.48
64111;DHT22;50401;48.188;11.566;2022-08-21T06:36:09;21.78;67.58
64111;DHT22;50401;48.188;11.566;2022-08-21T06:38:35;21.80;67.94
64111;DHT22;50401;48.188;11.566;2022-08-21T06:41:00;21.90;67.82
64111;DHT22;50401;48.188;11.566;2022-08-21T06:43:25;22.05;67.79
64111;DHT22;50401;48.188;11.566;2022-08-21T06:45:51;22.33;66.34
64111;DHT22;50401;48.188;11.566;2022-08-21T06:48:16;22.36;65.27
64111;DHT22;50401;48.188;11.566;2022-08-21T06:50:41;21.70;67.33
64111;DHT22;50401;48.188;11.566;2022-08-21T06:53:07;21.73;68.04
64111;DHT22;50401;48.188;11.566;2022-08-21T06:55:34;21.88;66.92
64111;DHT22;50401;48.188;11.566;2022-08-21T06:58:00;21.80;67.01
64111;DHT22;50401;48.188;11.566;2022-08-21T07:00:25;22.01;66.38
64111;DHT22;50401;48.188;11.566;2022-08-21T07:02:50;22.15;65.95
64111;DHT22;50401;48.188;11.566;2022-08-21T07:05:16;22.25;65.46
64111;DHT22;50401;48.188;11.566;2022-08-21T07:07:42;22.28;65.72
64111;DHT22;50401;48.188;11.566;2022-08-21T07:10:07;22.32;64.68
64111;DHT22;50401;48.188;11.566;2022-08-21T07:12:32;22.36;64.91
64111;DHT22;50401;48.188;11.566;2022-08-21T07:14:58;22.45;65.04
64111;DHT22;50401;48.188;11.566;2022-08-21T07:17:23;22.50;64.26
64111;DHT22;50401;48.188;11.566;2022-08-21T07:19:48;22.56;63.72
64111;DHT22;50401;48.188;11.566;2022-08-21T07:22:14;22.77;63.56
64111;DHT22;50401;48.188;11.566;2022-08-21T07:24:40;23.05;63.21
64111;DHT22;50401;48.188;11.566;2022-08-21T07:27:05;23.42;62.84
64111;DHT22;50401;48.188;11.566;2022-08-21T07:29:31;23.77;61.20
64111;DHT22;50401;48.188;11.566;2022-08-21T07:31:56;24.43;59.50
64111;DHT22;50401;48.188;11.566;2022-08-21T07:34:21;25.34;56.71
64111;DHT22;50401;48.188;11.566;2022-08-21T07:36:46;26.47;51.38
64111;DHT22;50401;48.188;11.566;2022-08-21T07:39:12;28.20;47.29
64111;DHT22;50401;48.188;11.566;2022-08-21T07:41:37;29.70;44.14
64111;DHT22;50401;48.188;11.566;2022-08-21T07:44:02;31.04;40.98
64111;DHT22;50401;48.188;11.566;2022-08-21T07:46:28;32.16;38.75
64111;DHT22;50401;48.188;11.566;2022-08-21T07:48:53;33.11;37.91
64111;DHT22;50401;48.188;11.566;2022-08-21T07:51:19;33.85;35.89
64111;DHT22;50401;48.188;11.566;2022-08-21T07:53:52;34.31;35.26
64111;DHT22;50401;48.188;11.566;2022-08-21T07:56:18;34.90;34.57
64111;DHT22;50401;48.188;11.566;2022-08-21T07:58:43;35.32;34.16
64111;DHT22;50401;48.188;11.566;2022-08-21T08:01:09;35.67;32.90
64111;DHT22;50401;48.188;11.566;2022-08-21T08:03:34;35.73;33.25
64111;DHT22;50401;48.188;11.566;2022-08-21T08:06:00;35.55;33.97
64111;DHT22;50401;48.188;11.566;2022-08-21T08:08:25;35.55;33.80
64111;DHT22;50401;48.188;11.566;2022-08-21T08:10:50;35.81;33.93
64111;DHT22;50401;48.188;11.566;2022-08-21T08:13:16;35.88;33.78
64111;DHT22;50401;48.188;11.566;2022-08-21T08:15:42;35.84;34.14
64111;DHT22;50401;48.188;11.566;2022-08-21T08:18:07;36.09;33.50
64111;DHT22;50401;48.188;11.566;2022-08-21T08:20:32;36.06;33.01
64111;DHT22;50401;48.188;11.566;2022-08-21T08:22:58;36.35;33.05
64111;DHT22;50401;48.188;11.566;2022-08-21T08:25:23;35.98;33.62
64111;DHT22;50401;48.188;11.566;2022-08-21T08:27:49;35.77;33.96
64111;DHT22;50401;48.188;11.566;2022-08-21T08:30:15;35.62;34.12
64111;DHT22;50401;48.188;11.566;2022-08-21T08:32:41;35.80;33.74
64111;DHT22;50401;48.188;11.566;2022-08-21T08:35:07;35.70;33.95
64111;DHT22;50401;48.188;11.566;2022-08-21T08:37:32;35.36;34.66
64111;DHT22;50401;48.188;11.566;2022-08-21T08:39:58;34.87;35.67
64111;DHT22;50401;48.188;11.566;2022-08-21T08:42:33;34.37;36.10
64111;DHT22;50401;48.188;11.566;2022-08-21T08:45:05;33.29;38.16
64111;DHT22;50401;48.188;11.566;2022-08-21T08:47:31;32.77;38.94
64111;DHT22;50401;48.188;11.566;2022-08-21T08:50:05;32.22;40.43
64111;DHT22;50401;48.188;11.566;2022-08-21T08:52:40;31.85;41.18
64111;DHT22;50401;48.188;11.566;2022-08-21T08:55:08;31.59;41.77
64111;DHT22;50401;48.188;11.566;2022-08-21T08:57:35;31.11;43.38
64111;DHT22;50401;48.188;11.566;2022-08-21T09:00:04;30.70;44.36
64111;DHT22;50401;48.188;11.566;2022-08-21T09:02:30;30.62;44.27
64111;DHT22;50401;48.188;11.566;2022-08-21T09:04:55;29.93;45.39
64111;DHT22;50401;48.188;11.566;2022-08-21T09:15:06;29.72;46.11
64111;DHT22;50401;48.188;11.566;2022-08-21T09:25:50;29.19;48.09
64111;DHT22;50401;48.188;11.566;2022-08-21T09:28:19;29.01;48.68
64111;DHT22;50401;48.188;11.566;2022-08-21T09:30:44;28.93;49.01
64111;DHT22;50401;48.188;11.566;2022-08-21T09:33:10;29.39;48.15
64111;DHT22;50401;48.188;11.566;2022-08-21T09:35:47;29.36;48.21
64111;DHT22;50401;48.188;11.566;2022-08-21T09:38:21;28.99;47.36
64111;DHT22;50401;48.188;11.566;2022-08-21T09:40:54;29.22;47.97
64111;DHT22;50401;48.188;11.566;2022-08-21T09:43:22;28.91;48.55
64111;DHT22;50401;48.188;11.566;2022-08-21T09:45:49;28.11;50.68
64111;DHT22;50401;48.188;11.566;2022-08-21T09:48:25;28.76;50.70
64111;DHT22;50401;48.188;11.566;2022-08-21T09:50:51;28.11;50.32
64111;DHT22;50401;48.188;11.566;2022-08-21T09:53:20;27.63;51.65
64111;DHT22;50401;48.188;11.566;2022-08-21T09:55:51;27.45;51.95
64111;DHT22;50401;48.188;11.566;2022-08-21T09:58:36;28.24;50.19
64111;DHT22;50401;48.188;11.566;2022-08-21T10:01:03;28.53;50.04
64111;DHT22;50401;48.188;11.566;2022-08-21T10:03:29;28.76;50.10
64111;DHT22;50401;48.188;11.566;2022-08-21T10:05:56;28.31;51.19
64111;DHT22;50401;48.188;11.566;2022-08-21T10:08:22;27.63;52.83
64111;DHT22;50401;48.188;11.566;2022-08-21T10:10:53;27.17;53.36
64111;DHT22;50401;48.188;11.566;2022-08-21T10:23:48;26.34;55.65
64111;DHT22;50401;48.188;11.566;2022-08-21T10:28:48;25.79;58.11
64111;DHT22;50401;48.188;11.566;2022-08-21T10:34:18;25.58;59.13
64111;DHT22;50401;48.188;11.566;2022-08-21T10:41:44;25.50;58.24
64111;DHT22;50401;48.188;11.566;2022-08-21T10:44:17;25.44;59.27
64111;DHT22;50401;48.188;11.566;2022-08-21T10:46:51;25.67;58.11
64111;DHT22;50401;48.188;11.566;2022-08-21T10:54:45;25.84;55.74
64111;DHT22;50401;48.188;11.566;2022-08-21T10:57:16;25.86;55.92
64111;DHT22;50401;48.188;11.566;2022-08-21T10:59:46;25.69;56.80
64111;DHT22;50401;48.188;11.566;2022-08-21T11:02:19;25.71;58.18
64111;DHT22;50401;48.188;11.566;2022-08-21T11:04:53;25.74;58.38
64111;DHT22;50401;48.188;11.566;2022-08-21T11:07:38;25.60;58.63
64111;DHT22;50401;48.188;11.566;2022-08-21T11:10:10;25.45;57.39
64111;DHT22;50401;48.188;11.566;2022-08-21T11:12:42;25.43;58.11
64111;DHT22;50401;48.188;11.566;2022-08-21T11:15:23;25.31;56.64
64111;DHT22;50401;48.188;11.566;2022-08-21T11:17:51;25.40;56.09
64111;DHT22;50401;48.188;11.566;2022-08-21T11:20:40;25.48;55.62
64111;DHT22;50401;48.188;11.566;2022-08-21T11:23:08;25.51;53.56
64111;DHT22;50401;48.188;11.566;2022-08-21T11:25:47;25.45;52.13
64111;DHT22;50401;48.188;11.566;2022-08-21T11:28:24;25.50;52.89
64111;DHT22;50401;48.188;11.566;2022-08-21T11:35:50;25.79;53.55
64111;DHT22;50401;48.188;11.566;2022-08-21T11:43:36;26.17;50.25
64111;DHT22;50401;48.188;11.566;2022-08-21T11:48:41;26.06;49.42
64111;DHT22;50401;48.188;11.566;2022-08-21T11:51:15;26.04;51.42
64111;DHT22;50401;48.188;11.566;2022-08-21T11:58:32;25.55;51.71
64111;DHT22;50401;48.188;11.566;2022-08-21T12:03:32;25.78;50.14
64111;DHT22;50401;48.188;11.566;2022-08-21T12:06:00;25.62;49.79
64111;DHT22;50401;48.188;11.566;2022-08-21T12:08:37;25.68;51.25
64111;DHT22;50401;48.188;11.566;2022-08-21T12:11:07;25.74;52.11
64111;DHT22;50401;48.188;11.566;2022-08-21T12:13:34;25.82;51.33
64111;DHT22;50401;48.188;11.566;2022-08-21T12:16:10;25.79;51.01
64111;DHT22;50401;48.188;11.566;2022-08-21T12:18:36;25.61;50.27
64111;DHT22;50401;48.188;11.566;2022-08-21T12:29:11;25.51;50.67
64111;DHT22;50401;48.188;11.566;2022-08-21T12:31:46;25.50;49.55
64111;DHT22;50401;48.188;11.566;2022-08-21T12:34:12;25.54;47.54
64111;DHT22;50401;48.188;11.566;2022-08-21T12:36:44;25.41;48.41
64111;DHT22;50401;48.188;11.566;2022-08-21T12:39:11;25.35;48.80
64111;DHT22;50401;48.188;11.566;2022-08-21T12:44:32;25.71;48.21
64111;DHT22;50401;48.188;11.566;2022-08-21T12:47:01;25.90;46.61
64111;DHT22;50401;48.188;11.566;2022-08-21T12:49:40;26.00;47.64
64111;DHT22;50401;48.188;11.566;2022-08-21T12:52:14;26.12;48.18
64111;DHT22;50401;48.188;11.566;2022-08-21T12:54:42;26.13;48.15
64111;DHT22;50401;48.188;11.566;2022-08-21T12:57:08;26.14;47.14
64111;DHT22;50401;48.188;11.566;2022-08-21T12:59:38;26.07;47.26
64111;DHT22;50401;48.188;11.566;2022-08-21T13:02:03;26.13;47.37
64111;DHT22;50401;48.188;11.566;2022-08-21T13:04:35;26.04;47.33
64111;DHT22;50401;48.188;11.566;2022-08-21T13:07:04;26.04;46.38
64111;DHT22;50401;48.188;11.566;2022-08-21T13:09:30;25.99;45.95
64111;DHT22;50401;48.188;11.566;2022-08-21T13:11:56;25.88;46.28
64111;DHT22;50401;48.188;11.566;2022-08-21T13:14:41;25.89;45.77
64111;DHT22;50401;48.188;11.566;2022-08-21T13:17:07;25.92;45.91
64111;DHT22;50401;48.188;11.566;2022-08-21T13:19:33;25.93;44.97
64111;DHT22;50401;48.188;11.566;2022-08-21T13:21:59;25.96;46.63
64111;DHT22;50401;48.188;11.566;2022-08-21T13:24:26;26.03;47.18
64111;DHT22;50401;48.188;11.566;2022-08-21T13:26:52;26.13;47.44
64111;DHT22;50401;48.188;11.566;2022-08-21T13:29:19;26.21;46.90
64111;DHT22;50401;48.188;11.566;2022-08-21T13:32:04;26.24;47.46
64111;DHT22;50401;48.188;11.566;2022-08-21T13:34:34;26.27;48.14
64111;DHT22;50401;48.188;11.566;2022-08-21T13:37:01;26.23;48.41
64111;DHT22;50401;48.188;11.566;2022-08-21T13:39:27;26.09;47.13
64111;DHT22;50401;48.188;11.566;2022-08-21T13:41:54;26.02;47.34
64111;DHT22;50401;48.188;11.566;2022-08-21T13:44:23;26.02;47.11
64111;DHT22;50401;48.188;11.566;2022-08-21T13:46:51;26.04;47.49
64111;DHT22;50401;48.188;11.566;2022-08-21T13:49:18;26.09;48.24
64111;DHT22;50401;48.188;11.566;2022-08-21T13:51:44;26.20;47.69
64111;DHT22;50401;48.188;11.566;2022-08-21T13:54:52;26.17;46.98
64111;DHT22;50401;48.188;11.566;2022-08-21T13:56:58;26.09;47.07
64111;DHT22;50401;48.188;11.566;2022-08-21T13:59:27;25.96;46.86
64111;DHT22;50401;48.188;11.566;2022-08-21T14:01:54;25.89;47.42
64111;DHT22;50401;48.188;11.566;2022-08-21T14:04:32;25.89;48.09
64111;DHT22;50401;48.188;11.566;2022-08-21T14:06:58;25.99;47.74
64111;DHT22;50401;48.188;11.566;2022-08-21T14:11:49;26.10;45.17
64111;DHT22;50401;48.188;11.566;2022-08-21T14:19:53;26.21;46.61
64111;DHT22;50401;48.188;11.566;2022-08-21T14:21:53;26.27;45.80
64111;DHT22;50401;48.188;11.566;2022-08-21T14:26:49;26.20;45.03
64111;DHT22;50401;48.188;11.566;2022-08-21T14:29:15;26.12;45.74
64111;DHT22;50401;48.188;11.566;2022-08-21T14:31:48;26.07;45.78
64111;DHT22;50401;48.188;11.566;2022-08-21T14:34:14;26.00;45.67
64111;DHT22;50401;48.188;11.566;2022-08-21T14:36:41;25.97;45.86
64111;DHT22;50401;48.188;11.566;2022-08-21T14:39:07;25.84;46.51
64111;DHT22;50401;48.188;11.566;2022-08-21T14:41:33;25.75;46.07
64111;DHT22;50401;48.188;11.566;2022-08-21T14:43:58;25.64;46.34
64111;DHT22;50401;48.188;11.566;2022-08-21T14:46:24;25.55;46.84
64111;DHT22;50401;48.188;11.566;2022-08-21T14:48:50;25.57;47.48
64111;DHT22;50401;48.188;11.566;2022-08-21T14:51:16;25.61;47.66
64111;DHT22;50401;48.188;11.566;2022-08-21T14:53:41;25.51;47.45
64111;DHT22;50401;48.188;11.566;2022-08-21T14:56:06;25.45;46.53
64111;DHT22;50401;48.188;11.566;2022-08-21T14:58:32;25.28;46.74
64111;DHT22;50401;48.188;11.566;2022-08-21T15:00:58;25.28;47.50
64111;DHT22;50401;48.188;11.566;2022-08-21T15:03:28;25.20;47.43
64111;DHT22;50401;48.188;11.566;2022-08-21T15:05:53;25.16;47.23
64111;DHT22;50401;48.188;11.566;2022-08-21T15:08:18;25.09;46.91
64111;DHT22;50401;48.188;11.566;2022-08-21T15:10:44;25.12;46.78
64111;DHT22;50401;48.188;11.566;2022-08-21T15:13:09;25.12;46.86
64111;DHT22;50401;48.188;11.566;2022-08-21T15:15:42;25.19;46.74
64111;DHT22;50401;48.188;11.566;2022-08-21T15:18:07;25.19;46.82
64111;DHT22;50401;48.188;11.566;2022-08-21T15:20:33;25.20;46.56
64111;DHT22;50401;48.188;11.566;2022-08-21T15:22:58;25.20;46.43
64111;DHT22;50401;48.188;11.566;2022-08-21T15:25:24;25.16;46.80
64111;DHT22;50401;48.188;11.566;2022-08-21T15:27:49;25.28;46.53
64111;DHT22;50401;48.188;11.566;2022-08-21T15:30:14;25.30;47.28
64111;DHT22;50401;48.188;11.566;2022-08-21T15:32:40;25.23;46.09
64111;DHT22;50401;48.188;11.566;2022-08-21T15:35:06;25.37;45.91
64111;DHT22;50401;48.188;11.566;2022-08-21T15:37:32;25.34;45.71
64111;DHT22;50401;48.188;11.566;2022-08-21T15:39:57;25.34;45.82
64111;DHT22;50401;48.188;11.566;2022-08-21T15:42:23;25.34;45.53
64111;DHT22;50401;48.188;11.566;2022-08-21T15:44:48;25.35;44.72
64111;DHT22;50401;48.188;11.566;2022-08-21T15:47:16;25.30;45.16
64111;DHT22;50401;48.188;11.566;2022-08-21T15:49:41;25.33;45.02
64111;DHT22;50401;48.188;11.566;2022-08-21T15:52:10;25.27;45.17
64111;DHT22;50401;48.188;11.566;2022-08-21T15:54:37;25.27;44.65
64111;DHT22;50401;48.188;11.566;2022-08-21T15:57:02;25.28;45.05
64111;DHT22;50401;48.188;11.566;2022-08-21T15:59:27;25.28;44.60
64111;DHT22;50401;48.188;11.566;2022-08-21T16:01:57;25.27;43.60
64111;DHT22;50401;48.188;11.566;2022-08-21T16:04:24;25.26;45.03
64111;DHT22;50401;48.188;11.566;2022-08-21T16:06:50;25.19;45.11
64111;DHT22;50401;48.188;11.566;2022-08-21T16:09:15;25.15;43.91
64111;DHT22;50401;48.188;11.566;2022-08-21T16:11:41;25.15;44.69
64111;DHT22;50401;48.188;11.566;2022-08-21T16:14:06;25.12;44.97
64111;DHT22;50401;48.188;11.566;2022-08-21T16:16:32;25.12;45.05
64111;DHT22;50401;48.188;11.566;2022-08-21T16:18:58;25.12;44.35
64111;DHT22;50401;48.188;11.566;2022-08-21T16:21:23;25.09;44.47
64111;DHT22;50401;48.188;11.566;2022-08-21T16:23:49;25.05;44.67
64111;DHT22;50401;48.188;11.566;2022-08-21T16:26:14;25.08;44.64
64111;DHT22;50401;48.188;11.566;2022-08-21T16:28:41;25.02;44.52
64111;DHT22;50401;48.188;11.566;2022-08-21T16:31:07;25.03;44.74
64111;DHT22;50401;48.188;11.566;2022-08-21T16:33:37;25.15;45.85
64111;DHT22;50401;48.188;11.566;2022-08-21T16:36:03;25.09;45.91
64111;DHT22;50401;48.188;11.566;2022-08-21T16:38:29;25.05;46.38
64111;DHT22;50401;48.188;11.566;2022-08-21T16:40:55;25.06;45.81
64111;DHT22;50401;48.188;11.566;2022-08-21T16:43:24;25.05;46.20
64111;DHT22;50401;48.188;11.566;2022-08-21T16:45:49;24.99;46.09
64111;DHT22;50401;48.188;11.566;2022-08-21T16:48:15;24.93;46.47